This is the latest recevied weather packets stored in our database for station/object KF6YUA. If no packets are shown the sender has not sent any weather packets the latest 10 day(s).
| Time | Temp. | Humidity | Pressure | Rain* | Wind** | Luminosity | Snow |
|---|---|---|---|---|---|---|---|
| 1777599223 | 16.11° C | 79% | 1014.7 hPa | 0 mm | - | 35 W/m² | - |
| 1777598918 | 16.67° C | 78% | 1014.8 hPa | 0 mm | - | 33 W/m² | - |
| 1777598617 | 17.22° C | 76% | 1014.6 hPa | 0 mm | - | 79 W/m² | - |
| 1777598312 | 17.22° C | 75% | 1014.7 hPa | 0 mm | - | 91 W/m² | - |
| 1777598010 | 17.78° C | 74% | 1014.7 hPa | 0 mm | - | 98 W/m² | - |
| 1777597709 | 17.78° C | 73% | 1014.8 hPa | 0 mm | - | 122 W/m² | - |
| 1777597405 | 17.78° C | 74% | 1014.6 hPa | 0 mm | - | 135 W/m² | - |
| 1777597101 | 17.78° C | 73% | 1014.6 hPa | 0 mm | - | 146 W/m² | - |
| 1777596797 | 17.78° C | 74% | 1014.6 hPa | 0 mm | - | 142 W/m² | - |
| 1777596493 | 18.33° C | 73% | 1014.7 hPa | 0 mm | - | 175 W/m² | - |
| 1777596191 | 18.89° C | 71% | 1014.7 hPa | 0 mm | - | 204 W/m² | - |
| 1777595888 | 19.44° C | 69% | 1014.8 hPa | 0 mm | - | 223 W/m² | - |
| 1777595588 | 20.56° C | 61% | 1014.5 hPa | 0 mm | - | 232 W/m² | - |
| 1777595283 | 21.11° C | 62% | 1014.5 hPa | 0 mm | - | 240 W/m² | - |
| 1777594980 | 20.56° C | 62% | 1014.8 hPa | 0 mm | - | 212 W/m² | - |
| 1777594676 | 21.11° C | 62% | 1014.7 hPa | 0 mm | - | 223 W/m² | - |
| 1777594373 | 21.11° C | 61% | 1014.5 hPa | 0 mm | - | 292 W/m² | - |
| 1777594069 | 21.11° C | 62% | 1014.7 hPa | 0 mm | - | 334 W/m² | - |
| 1777593764 | 21.67° C | 64% | 1014.7 hPa | 0 mm | - | 345 W/m² | - |
| 1777593461 | 21.11° C | 64% | 1014.7 hPa | 0 mm | - | 366 W/m² | - |
| 1777593159 | 21.11° C | 63% | 1014.7 hPa | 0 mm | - | 388 W/m² | - |
| 1777592859 | 21.11° C | 64% | 1014.7 hPa | 0 mm | - | 400 W/m² | - |
| 1777592556 | 20.56° C | 64% | 1014.6 hPa | 0 mm | - | 467 W/m² | - |
| 1777592251 | 21.11° C | 62% | 1014.8 hPa | 0 mm | - | 493 W/m² | - |
| 1777591948 | 21.11° C | 66% | 1014.8 hPa | 0 mm | - | 515 W/m² | - |
* Rain latest hour (hover to see other rain measurements)
** Current wind speed in m/s (hover to see current wind gust speed)